Time;durP1;ratioP1;P1;durP2;ratioP2;P2;SDS_P1;SDS_P2;PMS_P1;PMS_P2;Temp;Humidity;BMP_temperature;BMP_pressure;BME280_temperature;BME280_humidity;BME280_pressure;Samples;Min_cycle;Max_cycle;Signal;HPM_P1;HPM_P2
2022/09/26 00:02:14;;;;;;;7.13;4.70;;;;;;;8.14;100.00;100010.38;5224292;28;20028;-74
2022/09/26 00:04:44;;;;;;;5.47;3.95;;;;;;;8.24;100.00;100010.94;5224116;28;20020;-74
2022/09/26 00:07:15;;;;;;;7.80;4.85;;;;;;;8.21;100.00;100013.66;5241251;28;20031;-75
2022/09/26 00:09:46;;;;;;;8.68;4.55;;;;;;;8.14;100.00;100012.97;5223968;28;20087;-75
2022/09/26 00:12:16;;;;;;;6.40;4.50;;;;;;;8.18;100.00;100013.75;5237774;28;20075;-74
2022/09/26 00:14:46;;;;;;;8.90;5.28;;;;;;;8.28;100.00;100007.31;5241852;28;20477;-75
2022/09/26 00:17:16;;;;;;;7.55;4.75;;;;;;;8.29;100.00;99998.59;5238064;28;20033;-74
2022/09/26 00:19:47;;;;;;;7.32;4.60;;;;;;;8.21;100.00;100003.22;5227579;28;20437;-74
2022/09/26 00:22:17;;;;;;;10.73;4.57;;;;;;;8.10;100.00;99992.31;5241968;28;20028;-74
2022/09/26 00:24:47;;;;;;;9.13;5.15;;;;;;;8.12;100.00;99991.34;5238029;28;20056;-75
2022/09/26 00:27:19;;;;;;;8.95;5.25;;;;;;;8.19;100.00;99990.25;5234246;28;20029;-74
2022/09/26 00:29:49;;;;;;;6.30;4.80;;;;;;;8.14;100.00;99983.47;5241096;28;20527;-75
2022/09/26 00:32:19;;;;;;;7.13;5.53;;;;;;;8.23;100.00;99980.59;5232169;28;20016;-74
2022/09/26 00:34:50;;;;;;;9.85;4.50;;;;;;;8.20;100.00;99970.31;5230771;28;20509;-74
2022/09/26 00:37:20;;;;;;;8.43;5.13;;;;;;;8.24;100.00;99980.53;5221396;28;20437;-74
2022/09/26 00:39:50;;;;;;;7.45;4.72;;;;;;;8.20;100.00;99978.13;5237938;28;20490;-74
2022/09/26 00:42:21;;;;;;;7.32;4.85;;;;;;;8.13;100.00;99967.03;5223043;28;20017;-74
2022/09/26 00:44:55;;;;;;;6.75;4.68;;;;;;;8.16;100.00;99966.91;5241141;28;20081;-74
2022/09/26 00:47:31;;;;;;;6.35;4.30;;;;;;;7.94;100.00;99971.19;5239865;28;20032;-75
2022/09/26 00:50:24;;;;;;;8.00;4.50;;;;;;;7.92;100.00;99978.19;5227470;28;20055;-74
2022/09/26 00:55:38;;;;;;;7.43;4.10;;;;;;;7.74;100.00;99963.19;5235240;28;20056;-78
2022/09/26 00:58:13;;;;;;;5.75;4.05;;;;;;;7.77;100.00;99960.50;5241098;28;20031;-78
2022/09/26 01:00:46;;;;;;;6.78;4.43;;;;;;;7.82;100.00;99958.59;5243207;28;20028;-77
2022/09/26 01:03:19;;;;;;;5.97;4.03;;;;;;;7.68;100.00;99954.78;5241950;28;20016;-78
2022/09/26 01:05:50;;;;;;;9.23;4.22;;;;;;;7.70;100.00;99946.00;5245851;28;20035;-77
2022/09/26 01:08:26;;;;;;;5.47;4.20;;;;;;;7.85;100.00;99942.88;5244683;28;20029;-78
2022/09/26 01:10:58;;;;;;;6.10;4.13;;;;;;;8.05;100.00;99942.19;5228792;28;20025;-78
2022/09/26 01:13:31;;;;;;;7.60;4.68;;;;;;;7.99;100.00;99940.66;5245474;28;20043;-78
2022/09/26 01:16:02;;;;;;;6.97;4.30;;;;;;;7.88;100.00;99940.16;5246155;28;20060;-77
2022/09/26 01:18:33;;;;;;;5.30;3.75;;;;;;;7.92;100.00;99926.16;5254623;28;20062;-78
2022/09/26 01:21:03;;;;;;;7.75;4.10;;;;;;;7.93;100.00;99925.25;5246280;28;20332;-78
2022/09/26 01:24:11;;;;;;;7.68;4.13;;;;;;;8.15;100.00;99918.38;5236273;28;20017;-78
2022/09/26 01:27:08;;;;;;;7.30;3.67;;;;;;;8.10;100.00;99909.91;5254416;28;20115;-78
2022/09/26 01:30:07;;;;;;;6.90;4.00;;;;;;;8.26;100.00;99908.47;5240721;28;20625;-78
2022/09/26 01:32:59;;;;;;;5.47;3.80;;;;;;;8.28;100.00;99906.66;5240427;28;20215;-77
2022/09/26 01:35:30;;;;;;;6.07;3.47;;;;;;;8.22;100.00;99909.47;5225005;28;20551;-78
2022/09/26 01:38:23;;;;;;;9.35;3.67;;;;;;;8.23;100.00;99905.13;5235142;28;20031;-78
2022/09/26 01:41:16;;;;;;;8.63;3.95;;;;;;;8.11;100.00;99890.78;5223619;28;20514;-78
2022/09/26 01:44:08;;;;;;;7.03;3.92;;;;;;;8.14;100.00;99893.25;5234394;28;20036;-77
2022/09/26 01:46:47;;;;;;;5.28;3.58;;;;;;;8.14;100.00;99882.00;5235633;28;20633;-78
2022/09/26 01:49:36;;;;;;;11.13;3.90;;;;;;;8.26;100.00;99873.78;5240821;28;20029;-78
2022/09/26 01:52:18;;;;;;;9.60;3.58;;;;;;;8.35;100.00;99876.03;5232984;28;20502;-77
2022/09/26 01:54:56;;;;;;;8.18;3.72;;;;;;;8.30;100.00;99876.22;5239117;28;20025;-78
2022/09/26 01:57:33;;;;;;;5.43;3.33;;;;;;;8.20;100.00;99876.59;5251617;28;20028;-78
2022/09/26 02:00:05;;;;;;;7.00;3.60;;;;;;;8.18;100.00;99876.66;5235107;28;20039;-78
2022/09/26 02:02:41;;;;;;;5.70;2.92;;;;;;;8.27;100.00;99876.31;5235580;28;20032;-78
2022/09/26 02:05:51;;;;;;;6.30;2.88;;;;;;;8.37;100.00;99872.44;5215579;28;20288;-78
2022/09/26 02:08:43;;;;;;;7.47;3.17;;;;;;;8.23;100.00;99873.88;5235357;28;20041;-78
2022/09/26 02:11:17;;;;;;;5.82;3.00;;;;;;;8.27;100.00;99867.66;5245218;28;20036;-78
2022/09/26 02:13:54;;;;;;;6.80;3.03;;;;;;;8.34;100.00;99866.50;5240096;28;20020;-78
2022/09/26 02:16:30;;;;;;;5.90;2.88;;;;;;;8.43;100.00;99861.81;5240729;28;20275;-78
2022/09/26 02:19:26;;;;;;;6.95;3.10;;;;;;;8.40;100.00;99856.72;5251803;28;20477;-77
2022/09/26 02:21:57;;;;;;;5.63;3.05;;;;;;;8.35;100.00;99856.03;5236544;28;20062;-78
2022/09/26 02:24:28;;;;;;;5.85;3.00;;;;;;;8.43;100.00;99854.03;5221153;28;20089;-78
2022/09/26 02:26:58;;;;;;;4.50;2.70;;;;;;;8.35;100.00;99847.41;5242407;28;20202;-78
2022/09/26 02:29:29;;;;;;;7.93;2.97;;;;;;;8.32;100.00;99839.69;5233774;28;20028;-78
2022/09/26 02:32:05;;;;;;;4.30;2.70;;;;;;;8.40;100.00;99840.25;5234521;28;20054;-78
2022/09/26 02:34:35;;;;;;;4.22;2.80;;;;;;;8.57;100.00;99836.06;5233798;28;20025;-78
2022/09/26 02:37:06;;;;;;;5.30;3.40;;;;;;;8.41;100.00;99832.38;5233321;28;20086;-78
2022/09/26 02:39:36;;;;;;;4.57;2.70;;;;;;;8.49;100.00;99824.25;5235111;28;20046;-78
2022/09/26 02:42:42;;;;;;;5.15;2.85;;;;;;;8.31;100.00;99818.03;5233395;28;20016;-77
2022/09/26 02:45:31;;;;;;;6.13;2.70;;;;;;;8.36;100.00;99823.91;5231813;28;20546;-78
2022/09/26 02:48:02;;;;;;;7.97;2.72;;;;;;;8.51;100.00;99819.84;5221681;28;20032;-78
2022/09/26 02:51:00;;;;;;;4.90;2.40;;;;;;;8.43;100.00;99814.97;5231665;28;20032;-78
2022/09/26 02:54:04;;;;;;;5.78;2.75;;;;;;;8.47;100.00;99816.53;5241640;28;20287;-78
2022/09/26 02:56:54;;;;;;;5.10;2.50;;;;;;;8.52;100.00;99809.38;5251375;28;20435;-78
2022/09/26 02:59:46;;;;;;;7.68;2.80;;;;;;;8.57;100.00;99807.44;5236425;28;20091;-77
2022/09/26 03:02:21;;;;;;;5.75;2.03;;;;;;;8.59;100.00;99813.41;5236356;28;20522;-77
2022/09/26 03:04:59;;;;;;;5.45;2.05;;;;;;;8.75;100.00;99806.69;5235700;28;20085;-78
2022/09/26 03:07:38;;;;;;;6.15;2.10;;;;;;;8.78;100.00;99801.38;5225151;28;20067;-78
2022/09/26 03:10:11;;;;;;;4.72;2.08;;;;;;;8.90;100.00;99797.44;5236840;28;20422;-78
2022/09/26 03:12:43;;;;;;;3.90;1.63;;;;;;;8.99;100.00;99794.41;5234976;28;20033;-78
2022/09/26 03:15:16;;;;;;;3.67;1.80;;;;;;;8.95;100.00;99790.25;5241449;28;20029;-78
2022/09/26 03:17:50;;;;;;;2.92;1.98;;;;;;;8.91;100.00;99781.72;5238398;28;20064;-78
2022/09/26 03:20:22;;;;;;;4.93;1.70;;;;;;;8.85;100.00;99792.41;5243994;28;20043;-78
2022/09/26 03:22:52;;;;;;;6.15;1.70;;;;;;;8.94;100.00;99785.97;5243659;28;20028;-78
2022/09/26 03:25:25;;;;;;;4.47;1.77;;;;;;;8.97;100.00;99784.09;5244393;28;20067;-76
2022/09/26 03:27:56;;;;;;;4.78;1.70;;;;;;;8.90;100.00;99785.22;5247857;28;20119;-79
2022/09/26 03:30:26;;;;;;;3.78;1.67;;;;;;;8.83;100.00;99772.50;5232154;28;20137;-77
2022/09/26 03:32:57;;;;;;;7.78;1.60;;;;;;;8.79;100.00;99770.94;5233802;28;20086;-78
2022/09/26 03:35:27;;;;;;;4.35;1.90;;;;;;;8.88;100.00;99765.38;5229693;28;20071;-78
2022/09/26 03:37:57;;;;;;;3.72;1.50;;;;;;;8.86;100.00;99760.22;5232013;28;20381;-78
2022/09/26 03:40:27;;;;;;;2.95;1.65;;;;;;;8.82;100.00;99757.81;5225200;28;20029;-78
2022/09/26 03:42:58;;;;;;;4.40;1.73;;;;;;;8.87;100.00;99767.13;5253987;28;20028;-77
2022/09/26 03:45:28;;;;;;;5.22;1.70;;;;;;;8.90;100.00;99763.56;5232410;28;20143;-79
2022/09/26 03:47:58;;;;;;;3.63;1.45;;;;;;;8.92;100.00;99759.94;5234832;28;20028;-78
2022/09/26 03:50:29;;;;;;;4.35;1.50;;;;;;;8.95;100.00;99752.03;5228889;28;20406;-78
2022/09/26 03:53:00;;;;;;;4.72;1.90;;;;;;;8.91;100.00;99742.63;5240653;28;20027;-78
2022/09/26 03:55:31;;;;;;;4.07;1.88;;;;;;;9.04;100.00;99741.19;5245302;28;20028;-78
2022/09/26 03:58:02;;;;;;;7.00;2.38;;;;;;;9.03;100.00;99736.91;5246026;28;20033;-78
2022/09/26 04:00:32;;;;;;;16.13;8.55;;;;;;;9.13;100.00;99737.34;5232201;28;20029;-78
2022/09/26 04:03:03;;;;;;;11.82;4.70;;;;;;;9.21;100.00;99738.72;5235704;28;20032;-78
2022/09/26 04:05:33;;;;;;;5.07;2.30;;;;;;;9.10;100.00;99730.50;5244942;28;20020;-78
2022/09/26 04:08:04;;;;;;;7.53;1.83;;;;;;;9.21;100.00;99738.72;5242376;28;20040;-78
2022/09/26 04:10:34;;;;;;;6.18;1.90;;;;;;;9.16;100.00;99735.47;5242474;28;20027;-78
2022/09/26 04:13:05;;;;;;;4.93;1.70;;;;;;;9.34;100.00;99729.47;5243357;28;20401;-78
2022/09/26 04:15:36;;;;;;;14.60;6.40;;;;;;;9.27;100.00;99723.66;5243147;28;20044;-78
2022/09/26 04:18:06;;;;;;;5.72;2.03;;;;;;;9.33;100.00;99707.75;5243988;28;20028;-76
2022/09/26 04:20:37;;;;;;;7.80;3.38;;;;;;;9.30;100.00;99712.25;5224511;28;20046;-78
2022/09/26 04:23:07;;;;;;;10.05;4.45;;;;;;;9.30;100.00;99707.06;5231277;28;20426;-78
2022/09/26 04:25:37;;;;;;;6.63;1.83;;;;;;;9.25;100.00;99696.81;5242144;28;20033;-77
2022/09/26 04:28:07;;;;;;;10.13;4.72;;;;;;;9.19;100.00;99693.63;5239864;28;20254;-78
2022/09/26 04:30:38;;;;;;;7.07;3.10;;;;;;;9.25;100.00;99695.97;5238725;28;20036;-78
2022/09/26 04:33:09;;;;;;;5.03;2.70;;;;;;;9.33;100.00;99699.09;5234316;28;20029;-78
2022/09/26 04:35:39;;;;;;;4.90;2.85;;;;;;;9.28;100.00;99690.63;5222978;28;20024;-78
2022/09/26 04:38:10;;;;;;;5.75;2.05;;;;;;;9.29;100.00;99690.53;5252360;28;20036;-78
2022/09/26 04:40:41;;;;;;;4.82;1.83;;;;;;;9.26;100.00;99684.63;5251087;28;20035;-77
2022/09/26 04:43:11;;;;;;;2.97;1.85;;;;;;;9.18;100.00;99682.34;5230978;28;20034;-77
2022/09/26 04:45:42;;;;;;;2.55;1.50;;;;;;;9.15;100.00;99682.47;5248579;28;20024;-79
2022/09/26 04:48:12;;;;;;;12.43;5.97;;;;;;;9.20;100.00;99680.53;5252503;28;20032;-78
2022/09/26 04:50:42;;;;;;;10.25;5.05;;;;;;;9.24;100.00;99676.88;5249832;28;20040;-77
2022/09/26 04:53:13;;;;;;;12.60;4.63;;;;;;;9.14;100.00;99674.75;5249292;28;20021;-77
2022/09/26 04:55:45;;;;;;;7.15;2.90;;;;;;;9.10;100.00;99669.72;5254007;28;20024;-76
2022/09/26 04:58:16;;;;;;;8.23;2.33;;;;;;;9.08;100.00;99664.56;5248519;28;20032;-77
2022/09/26 05:00:48;;;;;;;5.30;1.50;;;;;;;9.19;100.00;99657.13;5242110;28;20033;-78
2022/09/26 05:03:19;;;;;;;5.47;1.42;;;;;;;9.13;100.00;99652.22;5245560;28;20016;-78
2022/09/26 05:05:49;;;;;;;3.80;1.55;;;;;;;9.14;100.00;99651.28;5230063;28;20037;-78
2022/09/26 05:08:19;;;;;;;2.85;1.40;;;;;;;9.23;100.00;99648.25;5256815;28;20393;-78
2022/09/26 05:10:55;;;;;;;7.25;3.00;;;;;;;9.30;100.00;99644.47;5246247;28;20035;-78
2022/09/26 05:13:25;;;;;;;6.53;2.28;;;;;;;9.30;100.00;99644.47;5243262;28;20061;-77
2022/09/26 05:16:00;;;;;;;5.40;1.92;;;;;;;9.36;100.00;99642.44;5232252;28;20033;-77
2022/09/26 05:18:32;;;;;;;6.03;1.70;;;;;;;9.56;100.00;99641.50;5239627;28;20035;-78
2022/09/26 05:21:04;;;;;;;3.88;1.50;;;;;;;9.53;100.00;99641.66;5243133;28;20028;-78
2022/09/26 05:26:37;;;;;;;5.05;1.90;;;;;;;9.75;100.00;99637.13;5235676;28;20064;-78
2022/09/26 05:29:08;;;;;;;11.70;4.32;;;;;;;9.70;100.00;99624.31;5215148;28;20402;-78
2022/09/26 05:31:39;;;;;;;5.15;1.90;;;;;;;9.67;100.00;99623.59;5238838;28;20112;-78
2022/09/26 05:34:10;;;;;;;4.50;1.35;;;;;;;9.83;100.00;99621.97;5237310;28;20086;-78
2022/09/26 05:36:41;;;;;;;4.00;1.65;;;;;;;9.81;100.00;99618.59;5240221;28;20481;-78
2022/09/26 05:42:04;;;;;;;6.55;1.27;;;;;;;9.89;100.00;99619.06;5240891;28;20040;-78
2022/09/26 05:44:35;;;;;;;5.53;1.30;;;;;;;9.97;100.00;99609.09;5239094;28;20029;-78
2022/09/26 05:47:07;;;;;;;5.32;1.50;;;;;;;10.04;100.00;99614.00;5239866;28;20024;-78
2022/09/26 05:49:37;;;;;;;6.18;1.40;;;;;;;10.15;100.00;99613.47;5249818;28;20125;-78
2022/09/26 05:52:08;;;;;;;4.85;1.10;;;;;;;10.15;100.00;99614.28;5242963;28;20454;-78
2022/09/26 05:54:38;;;;;;;6.03;1.02;;;;;;;10.32;100.00;99608.25;5237924;28;20032;-78
2022/09/26 05:57:08;;;;;;;6.10;0.90;;;;;;;10.32;100.00;99616.09;5253882;28;20036;-78
2022/09/26 05:59:38;;;;;;;3.47;1.20;;;;;;;10.43;100.00;99611.16;5238265;28;20040;-78
2022/09/26 06:02:10;;;;;;;4.47;1.00;;;;;;;10.35;100.00;99611.53;5234730;28;20021;-78
2022/09/26 06:04:41;;;;;;;8.63;1.48;;;;;;;10.57;100.00;99606.06;5224568;28;20127;-78
2022/09/26 06:07:12;;;;;;;3.33;1.00;;;;;;;10.61;100.00;99607.59;5214450;28;20028;-78
2022/09/26 06:09:43;;;;;;;4.13;1.10;;;;;;;10.63;100.00;99603.13;5234953;28;20028;-78
2022/09/26 06:12:13;;;;;;;4.68;1.25;;;;;;;10.57;100.00;99603.47;5239337;28;20243;-78
2022/09/26 06:14:45;;;;;;;6.45;1.50;;;;;;;10.80;100.00;99590.03;5243147;28;20086;-78
2022/09/26 06:17:15;;;;;;;4.97;1.20;;;;;;;10.86;100.00;99600.22;5242779;28;20050;-78
2022/09/26 06:19:46;;;;;;;5.82;1.13;;;;;;;10.86;100.00;99592.38;5244260;28;20036;-78
2022/09/26 06:22:16;;;;;;;5.55;1.35;;;;;;;10.99;100.00;99593.41;5255250;28;20512;-78
2022/09/26 06:24:46;;;;;;;2.80;0.80;;;;;;;11.05;100.00;99591.28;5253153;28;20103;-77
2022/09/26 06:27:17;;;;;;;4.57;1.20;;;;;;;11.07;100.00;99589.47;5229424;28;20037;-78
2022/09/26 06:29:47;;;;;;;5.97;1.60;;;;;;;11.10;100.00;99590.13;5246004;28;20021;-78
2022/09/26 06:32:17;;;;;;;2.15;0.93;;;;;;;11.05;100.00;99586.91;5243966;28;20036;-78
2022/09/26 06:34:48;;;;;;;5.18;1.40;;;;;;;10.99;100.00;99580.34;5224904;28;20035;-77
2022/09/26 06:37:18;;;;;;;2.97;1.38;;;;;;;11.14;100.00;99575.13;5243408;28;20032;-78
2022/09/26 06:39:48;;;;;;;8.50;1.60;;;;;;;11.19;100.00;99568.72;5245087;28;20445;-78
2022/09/26 06:42:19;;;;;;;4.55;1.40;;;;;;;11.23;100.00;99570.25;5245479;28;20048;-78
2022/09/26 06:44:49;;;;;;;4.47;1.38;;;;;;;11.33;100.00;99568.84;5245849;28;20021;-78
2022/09/26 06:47:19;;;;;;;5.38;1.27;;;;;;;11.36;100.00;99565.19;5244051;28;20398;-78
2022/09/26 06:49:49;;;;;;;4.78;1.50;;;;;;;11.45;100.00;99568.13;5224715;28;20530;-78
2022/09/26 06:52:20;;;;;;;3.33;1.30;;;;;;;11.60;100.00;99563.88;5225760;28;20035;-78
2022/09/26 06:54:50;;;;;;;5.35;1.20;;;;;;;11.80;100.00;99556.56;5248670;22;20090;-73
2022/09/26 06:57:21;;;;;;;3.65;1.63;;;;;;;12.04;100.00;99560.44;5229548;28;20028;-74
2022/09/26 06:59:52;;;;;;;1.88;1.10;;;;;;;11.92;100.00;99555.88;5233654;28;20046;-74
2022/09/26 07:02:25;;;;;;;3.92;1.25;;;;;;;12.25;100.00;99548.69;5236137;28;20016;-74
2022/09/26 07:04:56;;;;;;;3.83;1.00;;;;;;;12.32;100.00;99542.16;5232940;28;20406;-73
2022/09/26 07:07:26;;;;;;;4.80;1.00;;;;;;;12.51;100.00;99545.41;5233405;28;20021;-74
2022/09/26 07:09:56;;;;;;;3.75;0.88;;;;;;;12.67;100.00;99543.50;5225034;28;20074;-74
2022/09/26 07:12:27;;;;;;;6.88;1.40;;;;;;;12.68;100.00;99532.13;5225989;28;20413;-74
2022/09/26 07:14:59;;;;;;;4.35;0.98;;;;;;;12.67;100.00;99538.25;5225139;28;20025;-74
2022/09/26 07:17:29;;;;;;;3.28;0.98;;;;;;;12.83;100.00;99532.94;5229117;28;20028;-73
2022/09/26 07:19:59;;;;;;;3.83;0.90;;;;;;;13.26;100.00;99532.84;5229949;28;20033;-74
2022/09/26 07:22:30;;;;;;;4.88;1.00;;;;;;;13.17;100.00;99530.78;5229468;28;20053;-74
2022/09/26 07:25:00;;;;;;;3.78;1.20;;;;;;;13.30;100.00;99531.72;5228786;28;20386;-74
2022/09/26 07:27:30;;;;;;;3.75;1.02;;;;;;;13.05;100.00;99532.41;5230157;28;20025;-74
2022/09/26 07:30:01;;;;;;;5.90;1.20;;;;;;;13.03;100.00;99531.66;5226579;28;20029;-74
2022/09/26 07:32:31;;;;;;;4.32;1.00;;;;;;;13.32;100.00;99529.81;5227802;28;20021;-74
2022/09/26 07:35:02;;;;;;;7.82;1.27;;;;;;;13.52;100.00;99527.63;5226698;28;20032;-73
2022/09/26 07:37:32;;;;;;;3.92;1.00;;;;;;;13.27;100.00;99527.47;5228315;28;20036;-74
2022/09/26 07:40:04;;;;;;;4.13;1.20;;;;;;;13.14;100.00;99531.84;5232250;28;20493;-74
2022/09/26 07:42:37;;;;;;;4.47;1.13;;;;;;;13.27;100.00;99522.25;5231080;28;20055;-74
2022/09/26 07:45:08;;;;;;;4.00;1.15;;;;;;;13.59;100.00;99521.03;5233223;28;20405;-74
2022/09/26 07:50:27;;;;;;;6.18;1.63;;;;;;;13.47;98.07;99521.84;5228574;28;20051;-72
2022/09/26 07:52:57;;;;;;;7.07;1.30;;;;;;;13.30;97.18;99521.22;5227876;28;20029;-74
2022/09/26 07:55:28;;;;;;;6.88;1.48;;;;;;;13.45;96.32;99517.63;5237416;28;20036;-75
2022/09/26 07:57:58;;;;;;;3.45;1.40;;;;;;;13.29;96.77;99527.41;5230632;28;20081;-75
2022/09/26 08:00:30;;;;;;;6.43;1.60;;;;;;;13.42;95.98;99525.69;5230587;28;20041;-74
2022/09/26 08:03:00;;;;;;;5.43;1.50;;;;;;;13.50;93.89;99515.53;5231513;28;20020;-75
2022/09/26 08:05:31;;;;;;;4.70;1.50;;;;;;;13.88;93.74;99520.00;5231159;28;20025;-74
2022/09/26 08:08:03;;;;;;;5.55;1.38;;;;;;;13.88;91.82;99506.84;5230486;28;20120;-74
2022/09/26 08:10:34;;;;;;;4.03;1.30;;;;;;;13.86;92.73;99515.75;5233743;28;20025;-74
2022/09/26 08:13:04;;;;;;;4.03;1.38;;;;;;;13.86;93.00;99511.38;5229928;28;20028;-74
2022/09/26 08:15:35;;;;;;;2.90;1.25;;;;;;;13.70;92.71;99507.19;5231065;28;20021;-74
2022/09/26 08:18:05;;;;;;;5.80;1.55;;;;;;;13.70;93.07;99501.94;5229627;28;20024;-74
2022/09/26 08:20:36;;;;;;;3.35;1.33;;;;;;;13.69;92.02;99497.66;5231630;28;21309;-74
2022/09/26 08:23:06;;;;;;;5.93;1.45;;;;;;;13.58;93.13;99494.91;5229173;28;20032;-74
2022/09/26 08:25:37;;;;;;;8.43;1.70;;;;;;;14.74;88.05;99490.47;5235565;28;20167;-74
2022/09/26 08:28:11;;;;;;;5.30;1.55;;;;;;;15.34;86.79;99487.00;5227897;28;20393;-73
2022/09/26 08:30:43;;;;;;;6.03;1.33;;;;;;;15.23;85.79;99487.75;5233168;28;20112;-75
2022/09/26 08:33:14;;;;;;;3.22;1.30;;;;;;;15.11;87.05;99490.38;5232738;28;20061;-74
2022/09/26 08:35:44;;;;;;;4.75;1.55;;;;;;;15.45;83.65;99487.91;5232176;28;20466;-74
2022/09/26 08:38:14;;;;;;;4.63;1.35;;;;;;;15.53;84.40;99484.72;5231788;28;20025;-75
2022/09/26 08:41:00;;;;;;;6.00;1.30;;;;;;;15.10;85.93;99488.72;5232641;28;20032;-75
2022/09/26 08:43:36;;;;;;;6.03;1.50;;;;;;;14.75;86.27;99484.25;5231981;28;20390;-74
2022/09/26 08:46:51;;;;;;;7.72;1.55;;;;;;;14.89;87.78;99483.19;5234764;28;20054;-74
2022/09/26 08:50:03;;;;;;;5.78;1.73;;;;;;;14.82;86.25;99483.72;5228610;28;20024;-74
2022/09/26 08:52:55;;;;;;;5.90;1.67;;;;;;;14.88;85.74;99478.84;5230028;28;20040;-74
2022/09/26 08:55:30;;;;;;;7.15;1.70;;;;;;;14.76;85.65;99485.94;5233344;28;20075;-74
2022/09/26 08:58:03;;;;;;;5.40;1.35;;;;;;;14.98;85.72;99479.06;5227850;28;20099;-74
2022/09/26 09:00:39;;;;;;;4.32;1.50;;;;;;;14.96;84.09;99475.69;5229819;28;20028;-74
2022/09/26 09:03:09;;;;;;;;;;;;;;;15.55;83.79;99456.47;5231127;28;20470;-74
2022/09/26 09:05:57;;;;;;;4.63;1.27;;;;;;;16.70;79.70;99458.09;5229248;28;19919;-74
2022/09/26 09:08:38;;;;;;;4.50;1.33;;;;;;;17.35;78.41;99449.28;5228650;28;20024;-74
2022/09/26 09:11:46;;;;;;;4.43;1.45;;;;;;;17.49;76.69;99445.53;5228166;28;20043;-74
2022/09/26 09:14:34;;;;;;;3.65;1.17;;;;;;;17.75;76.59;99446.84;5217528;28;20029;-74
2022/09/26 09:17:05;;;;;;;3.50;1.27;;;;;;;17.55;78.83;99445.03;5229967;28;20028;-74
2022/09/26 09:20:05;;;;;;;3.10;1.27;;;;;;;17.29;76.67;99441.00;5227696;28;20379;-74
2022/09/26 09:23:04;;;;;;;4.50;1.50;;;;;;;17.33;76.90;99431.84;5225335;28;20270;-73
2022/09/26 09:25:48;;;;;;;5.35;1.63;;;;;;;17.55;76.84;99434.44;5228493;28;20572;-74
2022/09/26 09:28:25;;;;;;;6.68;1.40;;;;;;;17.35;76.94;99424.69;5231798;28;20034;-74
2022/09/26 09:30:59;;;;;;;2.78;1.10;;;;;;;17.40;77.12;99433.06;5233077;28;20039;-74
2022/09/26 09:33:44;;;;;;;4.50;1.30;;;;;;;17.19;79.18;99429.50;5233621;28;20111;-74
2022/09/26 09:36:20;;;;;;;4.80;1.45;;;;;;;17.11;77.55;99421.38;5235805;28;20567;-73
2022/09/26 09:38:52;;;;;;;4.57;1.50;;;;;;;17.06;77.60;99418.22;5231917;28;20109;-74
2022/09/26 09:41:37;;;;;;;4.10;1.35;;;;;;;16.89;77.48;99421.38;5232906;28;20082;-73
2022/09/26 09:44:24;;;;;;;2.38;1.23;;;;;;;16.66;77.90;99418.88;5233297;28;20569;-74
2022/09/26 09:46:54;;;;;;;3.80;1.42;;;;;;;16.74;78.53;99413.84;5236664;28;20486;-74
2022/09/26 09:49:25;;;;;;;3.22;1.17;;;;;;;17.01;76.81;99415.13;5235684;28;20032;-74
2022/09/26 09:52:30;;;;;;;4.35;1.17;;;;;;;16.85;77.63;99406.75;5235761;28;20024;-74
2022/09/26 09:55:35;;;;;;;4.28;1.17;;;;;;;16.96;76.70;99406.75;5238064;28;20036;-74
2022/09/26 09:58:08;;;;;;;4.78;1.10;;;;;;;17.27;75.96;99396.22;5234314;28;20106;-74
2022/09/26 10:00:45;;;;;;;5.07;1.20;;;;;;;17.03;77.01;99402.63;5236932;28;20554;-74
2022/09/26 10:03:25;;;;;;;5.22;1.48;;;;;;;17.11;75.79;99394.97;5235366;28;20021;-73
2022/09/26 10:05:59;;;;;;;2.83;1.10;;;;;;;16.92;76.50;99400.00;5235184;28;20516;-74
2022/09/26 10:08:34;;;;;;;2.78;1.15;;;;;;;17.02;76.93;99396.53;5236407;28;20070;-74
2022/09/26 10:11:38;;;;;;;2.78;1.00;;;;;;;16.80;75.93;99380.72;5234726;28;20124;-73
2022/09/26 10:14:27;;;;;;;5.38;1.35;;;;;;;16.87;76.47;99392.47;5234316;28;20119;-74
2022/09/26 10:17:10;;;;;;;4.32;1.00;;;;;;;17.07;77.75;99377.66;5231815;28;20028;-74
2022/09/26 10:19:42;;;;;;;3.20;0.93;;;;;;;17.21;76.58;99374.75;5230540;28;20030;-74
2022/09/26 10:22:28;;;;;;;2.15;0.88;;;;;;;17.11;77.97;99379.13;5234752;28;20033;-73
2022/09/26 10:25:07;;;;;;;3.45;1.35;;;;;;;16.52;79.37;99376.94;5234562;28;20166;-74
2022/09/26 10:27:39;;;;;;;3.30;1.10;;;;;;;16.50;77.59;99382.31;5225514;28;20526;-74
2022/09/26 10:30:18;;;;;;;2.63;1.08;;;;;;;16.23;78.02;99378.31;5229980;28;20425;-74
2022/09/26 10:32:52;;;;;;;4.90;1.27;;;;;;;16.06;79.43;99366.44;5232319;28;20175;-74
2022/09/26 10:35:44;;;;;;;2.47;0.90;;;;;;;16.14;79.26;99366.69;5229699;28;20029;-74
2022/09/26 10:38:18;;;;;;;2.20;0.95;;;;;;;16.20;78.95;99358.31;5232600;28;20037;-73
2022/09/26 10:40:55;;;;;;;2.40;1.05;;;;;;;16.34;78.40;99365.13;5233902;28;20032;-74
2022/09/26 10:43:32;;;;;;;3.10;1.10;;;;;;;16.26;77.98;99360.47;5231807;28;20159;-74
2022/09/26 10:46:16;;;;;;;5.10;1.05;;;;;;;16.57;76.91;99345.75;5213977;28;20028;-73
2022/09/26 10:48:52;;;;;;;3.38;1.33;;;;;;;16.65;77.47;99340.69;5231766;28;20470;-74
2022/09/26 10:51:41;;;;;;;4.93;0.80;;;;;;;16.63;75.95;99343.47;5234933;28;20024;-73
2022/09/26 10:54:17;;;;;;;3.55;0.93;;;;;;;16.78;74.54;99345.69;5236896;28;20039;-73
2022/09/26 10:56:58;;;;;;;1.98;0.75;;;;;;;16.89;72.29;99342.19;5233650;28;20531;-74
2022/09/26 10:59:31;;;;;;;3.40;0.90;;;;;;;16.80;72.54;99342.94;5238782;28;20035;-74
2022/09/26 11:02:03;;;;;;;2.78;0.80;;;;;;;16.55;72.94;99342.41;5236420;28;20116;-73
2022/09/26 11:07:28;;;;;;;3.47;0.93;;;;;;;16.35;74.24;99338.69;5232837;28;20412;-74
2022/09/26 11:10:05;;;;;;;5.10;1.15;;;;;;;16.23;74.87;99336.13;5231486;28;20151;-74
2022/09/26 11:12:38;;;;;;;2.90;0.70;;;;;;;16.20;74.43;99337.22;5231286;28;20031;-74
2022/09/26 11:15:12;;;;;;;4.45;1.15;;;;;;;16.53;75.61;99323.22;5232184;28;20066;-74
2022/09/26 11:17:43;;;;;;;4.07;1.10;;;;;;;16.68;75.76;99325.47;5212179;28;20037;-74
2022/09/26 11:20:42;;;;;;;4.25;1.02;;;;;;;16.68;73.65;99312.25;5228844;28;20029;-74
2022/09/26 11:23:23;;;;;;;3.22;1.20;;;;;;;16.66;72.44;99314.19;5233279;28;20036;-74
2022/09/26 11:26:05;;;;;;;4.13;1.05;;;;;;;16.95;74.17;99310.88;5234360;28;20074;-73
2022/09/26 11:28:43;;;;;;;4.05;1.00;;;;;;;16.70;73.12;99310.34;5228983;28;20016;-74
2022/09/26 11:31:25;;;;;;;2.13;0.95;;;;;;;16.81;71.95;99308.50;5229097;28;20028;-74
2022/09/26 11:34:00;;;;;;;4.82;0.90;;;;;;;16.41;72.68;99308.34;5226961;28;20029;-74
2022/09/26 11:36:46;;;;;;;2.42;0.90;;;;;;;16.70;72.58;99301.59;5229499;28;20032;-74
2022/09/26 11:39:23;;;;;;;2.45;1.10;;;;;;;16.62;71.97;99291.66;5232110;28;20028;-74
2022/09/26 11:42:04;;;;;;;3.95;0.88;;;;;;;16.66;72.00;99297.50;5219188;28;20412;-74
2022/09/26 11:44:57;;;;;;;2.83;0.85;;;;;;;16.89;72.22;99295.53;5230392;28;20029;-74
2022/09/26 11:47:33;;;;;;;1.95;1.15;;;;;;;16.61;72.39;99290.00;5231363;28;20378;-74
2022/09/26 11:50:18;;;;;;;2.55;0.90;;;;;;;16.79;71.82;99285.88;5232682;28;20067;-74
2022/09/26 11:53:28;;;;;;;5.97;0.90;;;;;;;16.87;71.15;99286.06;5232813;28;20528;-74
2022/09/26 11:56:23;;;;;;;3.70;1.08;;;;;;;16.59;72.53;99280.50;5233938;28;20044;-74
2022/09/26 11:59:08;;;;;;;3.42;1.02;;;;;;;16.37;71.53;99276.09;5227573;28;20055;-74
2022/09/26 12:01:54;;;;;;;3.60;1.10;;;;;;;16.28;72.96;99274.19;5231970;28;20294;-73
2022/09/26 12:04:49;;;;;;;4.38;1.10;;;;;;;16.44;72.66;99261.50;5231244;28;20429;-73
2022/09/26 12:07:33;;;;;;;1.42;0.80;;;;;;;16.40;73.01;99262.66;5232318;28;20056;-74
2022/09/26 12:10:24;;;;;;;2.25;0.95;;;;;;;16.29;73.92;99257.41;5234538;28;20032;-74
2022/09/26 12:13:14;;;;;;;2.85;0.90;;;;;;;16.65;73.21;99246.56;5232459;28;20542;-73
2022/09/26 12:15:54;;;;;;;4.80;1.20;;;;;;;16.55;72.76;99244.81;5231809;28;20052;-74
2022/09/26 12:18:48;;;;;;;4.15;1.08;;;;;;;16.64;72.64;99247.53;5228618;28;20052;-73
2022/09/26 12:21:24;;;;;;;2.28;0.70;;;;;;;16.68;72.29;99238.41;5230900;28;20033;-74
2022/09/26 12:24:00;;;;;;;3.90;1.00;;;;;;;16.56;71.47;99239.38;5232832;28;20067;-73
2022/09/26 12:26:52;;;;;;;2.03;0.85;;;;;;;16.47;71.78;99240.13;5230776;28;20695;-74
2022/09/26 12:29:48;;;;;;;5.05;1.00;;;;;;;16.40;71.98;99228.38;5227616;28;20063;-73